createdAt,value
2018-06-01T00:00:19.783Z,2.00
2018-06-01T00:02:47.423Z,1.90
2018-06-01T00:05:14.879Z,1.93
2018-06-01T00:07:42.323Z,3.23
2018-06-01T00:10:09.799Z,1.20
2018-06-01T00:12:37.244Z,2.40
2018-06-01T00:15:04.755Z,1.63
2018-06-01T00:17:32.203Z,1.67
2018-06-01T00:19:59.658Z,1.33
2018-06-01T00:22:27.124Z,0.97
2018-06-01T00:24:54.579Z,0.80
2018-06-01T00:27:22.213Z,1.00
2018-06-01T00:29:49.668Z,1.10
2018-06-01T00:32:17.120Z,1.20
2018-06-01T00:34:44.607Z,1.30
2018-06-01T00:37:12.059Z,1.90
2018-06-01T00:39:39.670Z,2.17
2018-06-01T00:42:07.128Z,4.00
2018-06-01T00:44:34.596Z,3.00
2018-06-01T00:47:02.099Z,3.53
2018-06-01T00:49:29.560Z,2.20
2018-06-01T00:51:57.274Z,3.70
2018-06-01T00:54:24.729Z,2.10
2018-06-01T00:56:52.177Z,2.50
2018-06-01T00:59:19.640Z,2.10
2018-06-01T01:01:47.091Z,2.30
2018-06-01T01:04:14.668Z,1.47
2018-06-01T01:06:42.112Z,1.70
2018-06-01T01:09:09.568Z,1.43
2018-06-01T01:11:37.040Z,1.60
2018-06-01T01:14:04.491Z,2.10
2018-06-01T01:16:31.985Z,1.60
2018-06-01T01:18:59.432Z,1.80
2018-06-01T01:21:26.887Z,1.00
2018-06-01T01:23:54.351Z,1.00
2018-06-01T01:26:21.816Z,1.70
2018-06-01T01:28:49.308Z,1.33
2018-06-01T01:31:16.785Z,1.57
2018-06-01T01:33:44.238Z,1.00
2018-06-01T01:36:11.728Z,1.40
2018-06-01T01:38:39.176Z,2.60
2018-06-01T01:41:06.645Z,1.77
2018-06-01T01:43:34.115Z,1.13
2018-06-01T01:46:01.560Z,1.50
2018-06-01T01:48:29.024Z,2.27
2018-06-01T01:50:56.464Z,1.33
2018-06-01T01:53:24.160Z,1.60
2018-06-01T01:55:51.716Z,1.63
2018-06-01T01:58:19.172Z,1.57
2018-06-01T02:00:46.635Z,1.13
2018-06-01T02:03:14.100Z,1.30
2018-06-01T02:05:41.736Z,1.40
2018-06-01T02:08:09.183Z,1.40
2018-06-01T02:10:36.644Z,1.70
2018-06-01T02:13:04.107Z,1.20
2018-06-01T02:15:31.568Z,1.20
2018-06-01T02:17:59.193Z,1.20
2018-06-01T02:20:26.716Z,1.20
2018-06-01T02:22:54.099Z,1.20
2018-06-01T02:25:21.565Z,1.70
2018-06-01T02:27:49.023Z,0.80
2018-06-01T02:30:16.507Z,1.63
2018-06-01T02:32:43.968Z,1.07
2018-06-01T02:35:11.412Z,1.43
2018-06-01T02:37:38.896Z,1.20
2018-06-01T02:40:06.353Z,1.43
2018-06-01T02:42:33.972Z,1.63
2018-06-01T02:45:01.428Z,1.33
2018-06-01T02:47:28.889Z,0.93
2018-06-01T02:49:56.359Z,1.00
2018-06-01T02:52:23.813Z,1.40
2018-06-01T02:54:51.284Z,1.93
2018-06-01T02:57:18.736Z,1.63
2018-06-01T02:59:46.196Z,0.90
2018-06-01T03:02:13.680Z,2.33
2018-06-01T03:04:41.120Z,1.00
2018-06-01T03:07:11.540Z,1.47
2018-06-01T03:09:38.988Z,0.80
2018-06-01T03:12:06.521Z,1.00
2018-06-01T03:14:33.987Z,1.40
2018-06-01T03:17:01.431Z,1.00
2018-06-01T03:19:29.083Z,1.40
2018-06-01T03:21:56.527Z,1.17
2018-06-01T03:24:23.975Z,1.20
2018-06-01T03:26:51.444Z,1.10
2018-06-01T03:29:18.903Z,1.80
2018-06-01T03:31:46.741Z,1.53
2018-06-01T03:34:14.187Z,1.20
2018-06-01T03:36:41.653Z,1.60
2018-06-01T03:39:09.151Z,1.97
2018-06-01T03:41:36.600Z,1.40
2018-06-01T03:44:04.299Z,1.00
2018-06-01T03:46:31.749Z,0.90
2018-06-01T03:48:59.196Z,1.73
2018-06-01T03:51:26.664Z,1.30
2018-06-01T03:53:54.120Z,1.20
2018-06-01T03:56:21.843Z,1.20
2018-06-01T03:58:49.288Z,0.90
2018-06-01T04:01:16.756Z,0.70
2018-06-01T04:03:44.224Z,0.67
2018-06-01T04:06:11.676Z,0.90
2018-06-01T04:08:39.160Z,1.20
2018-06-01T04:11:06.613Z,1.30
2018-06-01T04:13:34.059Z,1.30
2018-06-01T04:16:01.528Z,1.17
2018-06-01T04:18:28.988Z,1.20
2018-06-01T04:20:56.588Z,1.43
2018-06-01T04:23:24.087Z,0.90
2018-06-01T04:25:51.544Z,1.70
2018-06-01T04:28:19.011Z,1.30
2018-06-01T04:30:46.460Z,1.40
2018-06-01T04:33:14.092Z,1.60
2018-06-01T04:35:41.584Z,1.77
2018-06-01T04:38:09.048Z,1.80
2018-06-01T04:40:36.520Z,1.50
2018-06-01T04:43:03.963Z,1.70
2018-06-01T04:45:31.547Z,1.50
2018-06-01T04:47:59.005Z,1.87
2018-06-01T04:50:26.451Z,2.63
2018-06-01T04:52:53.923Z,3.03
2018-06-01T04:55:21.372Z,1.80
2018-06-01T04:57:49.228Z,2.20
2018-06-01T05:00:16.677Z,2.90
2018-06-01T05:02:44.125Z,2.13
2018-06-01T05:05:11.591Z,2.40
2018-06-01T05:07:39.046Z,2.00
2018-06-01T05:10:06.528Z,2.90
2018-06-01T05:12:33.977Z,3.07
2018-06-01T05:15:01.426Z,2.80
2018-06-01T05:17:28.908Z,3.20
2018-06-01T05:19:56.352Z,3.00
2018-06-01T05:22:23.968Z,2.33
2018-06-01T05:24:51.412Z,2.83
2018-06-01T05:27:18.855Z,2.57
2018-06-01T05:29:46.316Z,2.60
2018-06-01T05:32:13.766Z,2.53
2018-06-01T05:34:41.268Z,3.10
2018-06-01T05:37:08.716Z,3.13
2018-06-01T05:39:36.156Z,3.13
2018-06-01T05:42:03.621Z,2.30
2018-06-01T05:44:31.079Z,3.03
2018-06-01T05:46:58.799Z,2.70
2018-06-01T05:49:26.247Z,3.07
2018-06-01T05:51:53.689Z,2.70
2018-06-01T05:54:21.195Z,4.07
2018-06-01T05:56:48.625Z,2.97
2018-06-01T05:59:16.091Z,3.17
2018-06-01T06:01:43.536Z,3.33
2018-06-01T06:04:11.043Z,3.53
2018-06-01T06:06:38.516Z,3.27
2018-06-01T06:09:05.968Z,2.60
2018-06-01T06:11:33.444Z,3.40
2018-06-01T06:14:00.892Z,3.27
2018-06-01T06:16:28.343Z,2.70
2018-06-01T06:18:55.811Z,2.67
2018-06-01T06:21:23.267Z,2.10
2018-06-01T06:23:51.160Z,2.77
2018-06-01T06:26:18.612Z,2.90
2018-06-01T06:28:46.075Z,2.77
2018-06-01T06:31:13.544Z,3.97
2018-06-01T06:33:40.995Z,3.07
2018-06-01T06:36:08.496Z,2.60
2018-06-01T06:38:35.939Z,3.80
2018-06-01T06:41:03.403Z,3.73
2018-06-01T06:43:30.888Z,3.00
2018-06-01T06:45:58.353Z,3.77
2018-06-01T06:48:25.840Z,3.70
2018-06-01T06:50:53.288Z,3.17
2018-06-01T06:53:20.735Z,3.50
2018-06-01T06:55:48.204Z,3.07
2018-06-01T06:58:15.654Z,3.77
2018-06-01T07:00:43.300Z,3.67
2018-06-01T07:03:10.752Z,4.17
2018-06-01T07:05:38.207Z,2.67
2018-06-01T07:08:05.672Z,3.80
2018-06-01T07:10:33.140Z,3.90
2018-06-01T07:13:01.054Z,4.03
2018-06-01T07:15:28.520Z,3.33
2018-06-01T07:17:55.968Z,3.70
2018-06-01T07:20:23.501Z,4.63
2018-06-01T07:22:50.924Z,3.53
2018-06-01T07:25:18.512Z,4.30
2018-06-01T07:27:46.022Z,4.63
2018-06-01T07:30:13.427Z,3.90
2018-06-01T07:32:40.898Z,3.83
2018-06-01T07:35:08.352Z,4.13
2018-06-01T07:37:36.088Z,3.90
2018-06-01T07:40:03.574Z,3.53
2018-06-01T07:42:31.027Z,3.53
2018-06-01T07:44:58.487Z,4.50
2018-06-01T07:47:25.963Z,3.50
2018-06-01T07:49:54.035Z,3.40
2018-06-01T07:52:21.482Z,3.43
2018-06-01T07:54:48.928Z,3.50
2018-06-01T07:57:16.396Z,4.70
2018-06-01T07:59:43.844Z,4.33
2018-06-01T08:02:11.688Z,3.97
2018-06-01T08:04:39.213Z,3.97
2018-06-01T08:07:06.659Z,4.00
2018-06-01T08:09:34.127Z,3.80
2018-06-01T08:12:01.576Z,3.50
2018-06-01T08:14:29.255Z,4.00
2018-06-01T08:16:56.708Z,3.87
2018-06-01T08:19:24.153Z,4.40
2018-06-01T08:21:51.627Z,4.43
2018-06-01T08:24:19.075Z,5.80
2018-06-01T08:26:46.552Z,4.77
2018-06-01T08:29:14.000Z,4.67
2018-06-01T08:31:41.452Z,4.67
2018-06-01T08:34:08.924Z,4.07
2018-06-01T08:36:36.372Z,4.30
2018-06-01T08:39:03.856Z,4.17
2018-06-01T08:41:31.300Z,4.40
2018-06-01T08:43:58.744Z,4.70
2018-06-01T08:46:26.261Z,4.40
2018-06-01T08:48:53.680Z,4.47
2018-06-01T08:51:21.392Z,4.43
2018-06-01T08:53:48.839Z,5.00
2018-06-01T08:56:16.640Z,4.30
2018-06-01T08:58:44.116Z,4.10
2018-06-01T09:01:11.564Z,3.90
2018-06-01T09:03:39.044Z,2.70
2018-06-01T09:06:06.504Z,3.97
2018-06-01T09:08:33.959Z,3.87
2018-06-01T09:11:01.420Z,3.33
2018-06-01T09:13:28.878Z,2.80
2018-06-01T09:15:56.504Z,2.83
2018-06-01T09:18:23.952Z,2.50
2018-06-01T09:20:51.419Z,3.20
2018-06-01T09:23:18.891Z,2.63
2018-06-01T09:25:46.336Z,2.60
2018-06-01T09:28:14.025Z,2.80
2018-06-01T09:30:41.470Z,2.27
2018-06-01T09:33:08.927Z,2.57
2018-06-01T09:35:36.412Z,2.00
2018-06-01T09:38:03.856Z,1.70
2018-06-01T09:40:31.368Z,2.77
2018-06-01T09:42:58.836Z,2.67
2018-06-01T09:45:26.281Z,3.07
2018-06-01T09:47:53.755Z,2.70
2018-06-01T09:50:21.216Z,2.60
2018-06-01T09:52:48.975Z,3.17
2018-06-01T09:55:16.428Z,2.70
2018-06-01T09:57:43.884Z,2.40
2018-06-01T10:00:11.348Z,2.13
2018-06-01T10:02:39.155Z,2.30
2018-06-01T10:05:06.804Z,2.20
2018-06-01T10:07:34.264Z,2.70
2018-06-01T10:10:07.208Z,2.50
2018-06-01T10:12:34.671Z,2.53
2018-06-01T10:15:02.119Z,2.57
2018-06-01T10:17:29.591Z,2.00
2018-06-01T10:19:57.035Z,2.57
2018-06-01T10:22:24.579Z,3.13
2018-06-01T10:24:52.052Z,2.73
2018-06-01T10:27:19.499Z,2.37
2018-06-01T10:29:46.979Z,2.47
2018-06-01T10:32:14.437Z,2.90
2018-06-01T10:34:41.937Z,2.50
2018-06-01T10:37:09.388Z,2.70
2018-06-01T10:39:36.897Z,2.50
2018-06-01T10:42:04.320Z,3.23
2018-06-01T10:44:31.772Z,3.40
2018-06-01T10:46:59.272Z,4.27
2018-06-01T10:49:26.723Z,3.13
2018-06-01T10:51:54.183Z,3.20
2018-06-01T10:54:21.693Z,4.17
2018-06-01T10:56:49.103Z,3.50
2018-06-01T10:59:16.773Z,5.60
2018-06-01T11:01:44.243Z,4.10
2018-06-01T11:04:11.700Z,5.73
2018-06-01T11:06:39.180Z,5.03
2018-06-01T11:09:06.627Z,4.53
2018-06-01T11:11:34.433Z,5.13
2018-06-01T11:14:01.889Z,4.37
2018-06-01T11:16:29.341Z,4.53
2018-06-01T11:18:56.849Z,5.37
2018-06-01T11:21:24.314Z,8.43
2018-06-01T11:23:51.807Z,9.43
2018-06-01T11:26:19.260Z,6.03
2018-06-01T11:28:46.708Z,6.43
2018-06-01T11:31:14.208Z,6.10
2018-06-01T11:33:41.656Z,6.40
2018-06-01T11:36:09.347Z,6.33
2018-06-01T11:38:36.788Z,5.77
2018-06-01T11:41:04.233Z,5.33
2018-06-01T11:43:31.708Z,6.67
2018-06-01T11:45:59.160Z,5.50
2018-06-01T11:48:26.763Z,5.30
2018-06-01T11:50:54.233Z,5.20
2018-06-01T11:53:21.679Z,6.00
2018-06-01T11:55:49.151Z,4.87
2018-06-01T11:58:16.604Z,4.70
2018-06-01T12:00:44.076Z,5.47
2018-06-01T12:03:12.410Z,5.73
2018-06-01T12:05:39.859Z,9.43
2018-06-01T12:08:07.345Z,6.60
2018-06-01T12:10:34.796Z,4.80
2018-06-01T12:13:02.404Z,4.23
2018-06-01T12:15:29.870Z,3.47
2018-06-01T12:17:57.315Z,4.30
2018-06-01T12:20:24.792Z,4.30
2018-06-01T12:22:52.240Z,3.40
2018-06-01T12:25:19.968Z,4.30
2018-06-01T12:27:47.422Z,3.60
2018-06-01T12:30:14.868Z,3.60
2018-06-01T12:32:42.336Z,4.00
2018-06-01T12:35:09.801Z,4.53
2018-06-01T12:37:37.590Z,4.40
2018-06-01T12:40:05.050Z,3.70
2018-06-01T12:42:32.500Z,2.97
2018-06-01T12:44:59.967Z,2.10
2018-06-01T12:47:27.427Z,2.63
2018-06-01T12:49:54.913Z,2.53
2018-06-01T12:52:22.367Z,2.27
2018-06-01T12:54:49.855Z,2.30
2018-06-01T12:57:17.324Z,2.10
2018-06-01T12:59:44.771Z,2.00
2018-06-01T13:02:12.252Z,2.17
2018-06-01T13:04:39.735Z,2.47
2018-06-01T13:07:07.208Z,2.67
2018-06-01T13:09:34.692Z,2.17
2018-06-01T13:12:02.148Z,2.30
2018-06-01T13:14:29.624Z,2.30
2018-06-01T13:16:57.100Z,3.00
2018-06-01T13:19:24.553Z,2.37
2018-06-01T13:21:52.040Z,2.43
2018-06-01T13:24:19.484Z,2.90
2018-06-01T13:26:46.948Z,2.93
2018-06-01T13:29:14.412Z,2.23
2018-06-01T13:31:41.860Z,2.17
2018-06-01T13:34:09.328Z,2.93
2018-06-01T13:36:36.797Z,2.90
2018-06-01T13:39:04.252Z,2.40
2018-06-01T13:41:31.728Z,2.70
2018-06-01T13:43:59.175Z,2.30
2018-06-01T13:46:26.621Z,1.70
2018-06-01T13:48:54.092Z,2.90
2018-06-01T13:51:21.537Z,2.53
2018-06-01T13:53:49.012Z,2.00
2018-06-01T13:56:16.492Z,1.80
2018-06-01T13:58:43.943Z,1.93
2018-06-01T14:01:11.399Z,1.80
2018-06-01T14:03:38.863Z,2.10
2018-06-01T14:06:06.308Z,2.60
2018-06-01T14:08:33.755Z,2.23
2018-06-01T14:11:01.228Z,1.90
2018-06-01T14:13:28.676Z,2.53
2018-06-01T14:15:56.234Z,2.57
2018-06-01T14:18:23.700Z,2.40
2018-06-01T14:20:51.149Z,2.80
2018-06-01T14:23:18.607Z,2.70
2018-06-01T14:25:46.092Z,2.63
2018-06-01T14:28:13.571Z,2.10
2018-06-01T14:30:41.024Z,2.07
2018-06-01T14:33:08.503Z,2.20
2018-06-01T14:35:35.948Z,2.20
2018-06-01T14:38:03.401Z,1.93
2018-06-01T14:40:31.249Z,1.80
2018-06-01T14:42:58.691Z,1.33
2018-06-01T14:45:26.137Z,1.20
2018-06-01T14:47:54.137Z,1.20
2018-06-01T14:50:21.583Z,2.10
2018-06-01T14:52:49.028Z,1.70
2018-06-01T14:55:16.632Z,2.00
2018-06-01T14:57:44.100Z,2.07
2018-06-01T15:00:11.555Z,2.40
2018-06-01T15:02:39.410Z,1.97
2018-06-01T15:05:06.856Z,2.50
2018-06-01T15:07:34.304Z,2.27
2018-06-01T15:10:01.968Z,2.40
2018-06-01T15:12:29.412Z,2.30
2018-06-01T15:14:56.867Z,2.70
2018-06-01T15:17:24.602Z,2.37
2018-06-01T15:19:52.055Z,2.30
2018-06-01T15:22:19.508Z,2.13
2018-06-01T15:24:47.001Z,1.73
2018-06-01T15:27:14.443Z,1.53
2018-06-01T15:29:41.891Z,2.03
2018-06-01T15:32:09.560Z,1.53
2018-06-01T15:34:37.007Z,1.40
2018-06-01T15:37:04.474Z,1.60
2018-06-01T15:39:31.965Z,1.70
2018-06-01T15:41:59.411Z,1.37
2018-06-01T15:44:26.859Z,1.40
2018-06-01T15:46:54.527Z,2.23
2018-06-01T15:49:21.979Z,1.43
2018-06-01T15:51:49.452Z,2.20
2018-06-01T15:54:16.935Z,1.37
2018-06-01T15:56:44.385Z,1.40
2018-06-01T15:59:11.839Z,1.50
2018-06-01T16:01:39.556Z,2.60
2018-06-01T16:04:07.104Z,2.17
2018-06-01T16:06:34.566Z,2.10
2018-06-01T16:09:02.049Z,2.40
2018-06-01T16:11:29.491Z,1.93
2018-06-01T16:13:56.960Z,2.07
2018-06-01T16:16:24.436Z,1.30
2018-06-01T16:18:51.899Z,2.33
2018-06-01T16:21:19.368Z,1.80
2018-06-01T16:23:47.083Z,1.47
2018-06-01T16:26:14.528Z,1.73
2018-06-01T16:28:41.976Z,1.23
2018-06-01T16:31:09.461Z,1.70
2018-06-01T16:33:36.907Z,1.80
2018-06-01T16:36:04.352Z,1.77
2018-06-01T16:38:32.032Z,1.60
2018-06-01T16:40:59.534Z,1.77
2018-06-01T16:43:26.980Z,1.80
2018-06-01T16:45:54.460Z,2.00
2018-06-01T16:48:21.939Z,2.00
2018-06-01T16:50:49.873Z,2.10
2018-06-01T16:53:17.321Z,1.60
2018-06-01T16:55:45.200Z,2.30
2018-06-01T16:58:12.695Z,2.20
2018-06-01T17:00:40.143Z,2.43
2018-06-01T17:03:07.793Z,1.77
2018-06-01T17:05:35.253Z,1.97
2018-06-01T17:08:02.704Z,2.07
2018-06-01T17:10:30.188Z,1.60
2018-06-01T17:12:57.641Z,2.40
2018-06-01T17:15:25.387Z,1.73
2018-06-01T17:17:52.835Z,1.50
2018-06-01T17:20:20.378Z,3.33
2018-06-01T17:22:47.882Z,1.60
2018-06-01T17:25:15.328Z,1.63
2018-06-01T17:27:42.816Z,1.57
2018-06-01T17:30:10.280Z,1.70
2018-06-01T17:32:37.748Z,1.73
2018-06-01T17:35:05.225Z,1.53
2018-06-01T17:37:32.685Z,1.83
2018-06-01T17:40:00.283Z,2.23
2018-06-01T17:42:27.732Z,1.50
2018-06-01T17:44:55.205Z,1.67
2018-06-01T17:47:22.706Z,1.70
2018-06-01T17:49:50.165Z,1.50
2018-06-01T17:52:17.658Z,2.17
2018-06-01T17:54:46.368Z,2.33
2018-06-01T17:57:13.812Z,1.80
2018-06-01T17:59:41.283Z,1.50
2018-06-01T18:02:08.727Z,1.80
2018-06-01T18:04:36.399Z,1.70
2018-06-01T18:07:03.884Z,1.23
2018-06-01T18:09:31.336Z,1.90
2018-06-01T18:11:58.807Z,2.07
2018-06-01T18:14:26.283Z,1.47
2018-06-01T18:16:53.764Z,1.93
2018-06-01T18:19:21.216Z,1.63
2018-06-01T18:21:48.664Z,2.00
2018-06-01T18:24:16.133Z,1.73
2018-06-01T18:26:43.585Z,1.57
2018-06-01T18:29:11.332Z,1.70
2018-06-01T18:31:38.783Z,1.33
2018-06-01T18:34:06.247Z,1.70
2018-06-01T18:36:33.716Z,1.90
2018-06-01T18:39:01.165Z,1.40
2018-06-01T18:41:28.884Z,1.30
2018-06-01T18:43:56.343Z,2.30
2018-06-01T18:46:23.788Z,1.07
2018-06-01T18:48:51.268Z,1.70
2018-06-01T18:51:19.119Z,1.50
2018-06-01T18:53:46.952Z,1.53
2018-06-01T18:56:14.450Z,1.47
2018-06-01T18:58:41.863Z,1.73
2018-06-01T19:01:09.335Z,2.10
2018-06-01T19:03:36.804Z,1.40
2018-06-01T19:06:04.400Z,1.50
2018-06-01T19:08:31.879Z,1.70
2018-06-01T19:10:59.340Z,1.53
2018-06-01T19:13:26.812Z,1.30
2018-06-01T19:15:54.265Z,1.97
2018-06-01T19:18:21.947Z,1.50
2018-06-01T19:20:49.394Z,1.87
2018-06-01T19:23:16.859Z,2.13
2018-06-01T19:25:44.328Z,2.80
2018-06-01T19:28:11.791Z,1.80
2018-06-01T19:30:39.504Z,1.90
2018-06-01T19:33:06.951Z,1.60
2018-06-01T19:35:34.412Z,1.70
2018-06-01T19:38:01.876Z,1.80
2018-06-01T19:40:29.326Z,1.80
2018-06-01T19:42:57.064Z,2.50
2018-06-01T19:45:24.508Z,1.87
2018-06-01T19:47:51.987Z,2.50
2018-06-01T19:50:19.463Z,1.93
2018-06-01T19:52:46.912Z,2.30
2018-06-01T19:55:14.487Z,2.90
2018-06-01T19:57:41.935Z,3.10
2018-06-01T20:00:09.384Z,2.30
2018-06-01T20:02:36.864Z,2.43
2018-06-01T20:05:04.311Z,2.83
2018-06-01T20:07:31.964Z,2.90
2018-06-01T20:09:59.412Z,2.80
2018-06-01T20:12:26.871Z,2.90
2018-06-01T20:14:54.364Z,2.90
2018-06-01T20:17:23.805Z,3.10
2018-06-01T20:19:51.979Z,3.10
2018-06-01T20:22:19.478Z,2.70
2018-06-01T20:24:46.901Z,2.50
2018-06-01T20:27:14.364Z,3.00
2018-06-01T20:29:41.827Z,2.73
2018-06-01T20:32:09.553Z,2.90
2018-06-01T20:34:37.049Z,2.77
2018-06-01T20:37:04.506Z,2.80
2018-06-01T20:39:31.980Z,3.10
2018-06-01T20:41:59.428Z,2.90
2018-06-01T20:44:27.185Z,2.83
2018-06-01T20:46:54.701Z,2.30
2018-06-01T20:49:22.157Z,3.03
2018-06-01T20:51:49.644Z,3.10
2018-06-01T20:54:17.089Z,3.00
2018-06-01T20:56:44.673Z,2.90
2018-06-01T20:59:12.108Z,2.90
2018-06-01T21:01:39.560Z,2.00
2018-06-01T21:04:07.028Z,3.00
2018-06-01T21:06:34.483Z,2.70
2018-06-01T21:09:02.392Z,3.03
2018-06-01T21:11:29.844Z,3.00
2018-06-01T21:13:57.297Z,3.00
2018-06-01T21:16:24.776Z,2.90
2018-06-01T21:18:52.220Z,2.97
2018-06-01T21:21:19.755Z,3.20
2018-06-01T21:23:47.219Z,2.40
2018-06-01T21:26:14.669Z,2.70
2018-06-01T21:28:42.179Z,4.20
2018-06-01T21:31:09.632Z,2.90
2018-06-01T21:33:37.500Z,2.50
2018-06-01T21:36:04.953Z,3.53
2018-06-01T21:38:32.416Z,2.87
2018-06-01T21:40:59.898Z,2.90
2018-06-01T21:43:27.339Z,2.77
2018-06-01T21:45:55.057Z,4.37
2018-06-01T21:48:22.531Z,3.13
2018-06-01T21:50:49.982Z,3.43
2018-06-01T21:53:17.450Z,3.47
2018-06-01T21:55:44.908Z,3.73
2018-06-01T21:58:12.619Z,3.03
2018-06-01T22:00:40.084Z,3.50
2018-06-01T22:03:07.544Z,3.30
2018-06-01T22:05:35.016Z,3.70
2018-06-01T22:08:02.460Z,3.50
2018-06-01T22:10:30.160Z,4.47
2018-06-01T22:12:57.615Z,3.90
2018-06-01T22:15:25.064Z,3.83
2018-06-01T22:17:52.532Z,3.53
2018-06-01T22:20:19.988Z,3.90
2018-06-01T22:22:47.707Z,3.63
2018-06-01T22:25:15.173Z,4.60
2018-06-01T22:27:42.639Z,4.37
2018-06-01T22:30:10.103Z,4.47
2018-06-01T22:32:37.560Z,4.50
2018-06-01T22:35:05.260Z,5.13
2018-06-01T22:37:32.792Z,3.73
2018-06-01T22:40:00.260Z,5.03
2018-06-01T22:42:27.724Z,5.20
2018-06-01T22:44:55.202Z,3.67
2018-06-01T22:47:22.820Z,4.30
2018-06-01T22:49:50.287Z,4.77
2018-06-01T22:52:17.731Z,4.40
2018-06-01T22:54:45.201Z,3.67
2018-06-01T22:57:12.657Z,3.80
2018-06-01T22:59:40.137Z,4.00
2018-06-01T23:02:07.584Z,3.70
2018-06-01T23:04:35.035Z,4.20
2018-06-01T23:07:02.523Z,3.23
2018-06-01T23:09:29.972Z,3.97
2018-06-01T23:11:57.531Z,4.00
2018-06-01T23:14:24.981Z,3.90
2018-06-01T23:16:52.432Z,3.70
2018-06-01T23:19:19.915Z,4.90
2018-06-01T23:21:47.364Z,4.23
2018-06-01T23:24:14.979Z,5.00
2018-06-01T23:26:42.441Z,5.10
2018-06-01T23:29:09.888Z,4.57
2018-06-01T23:31:37.353Z,4.33
2018-06-01T23:34:04.820Z,4.90
2018-06-01T23:36:32.619Z,4.27
2018-06-01T23:39:00.073Z,4.53
2018-06-01T23:41:27.548Z,3.90
2018-06-01T23:43:55.019Z,5.10
2018-06-01T23:46:22.495Z,5.13
2018-06-01T23:48:50.179Z,4.67
2018-06-01T23:51:17.624Z,4.60
2018-06-01T23:53:45.080Z,3.83
2018-06-01T23:56:12.551Z,4.90
2018-06-01T23:58:40.016Z,4.60
